sensor_id;sensor_type;location;lat;lon;timestamp;P1;durP1;ratioP1;P2;durP2;ratioP2
14203;SDS011;7185;51.854;6.622;2023-06-22T00:01:10;21.50;;;14.55;;
14203;SDS011;7185;51.854;6.622;2023-06-22T00:03:42;22.15;;;15.20;;
14203;SDS011;7185;51.854;6.622;2023-06-22T00:06:13;20.38;;;14.05;;
14203;SDS011;7185;51.854;6.622;2023-06-22T00:08:45;20.08;;;14.20;;
14203;SDS011;7185;51.854;6.622;2023-06-22T00:11:16;21.38;;;14.82;;
14203;SDS011;7185;51.854;6.622;2023-06-22T00:13:49;16.80;;;13.77;;
14203;SDS011;7185;51.854;6.622;2023-06-22T00:16:21;20.08;;;14.95;;
14203;SDS011;7185;51.854;6.622;2023-06-22T00:18:52;19.98;;;14.20;;
14203;SDS011;7185;51.854;6.622;2023-06-22T00:21:24;18.33;;;13.75;;
14203;SDS011;7185;51.854;6.622;2023-06-22T00:23:55;18.52;;;14.18;;
14203;SDS011;7185;51.854;6.622;2023-06-22T00:26:27;19.10;;;13.02;;
14203;SDS011;7185;51.854;6.622;2023-06-22T00:29:00;20.85;;;14.35;;
14203;SDS011;7185;51.854;6.622;2023-06-22T00:31:31;18.25;;;14.45;;
14203;SDS011;7185;51.854;6.622;2023-06-22T00:34:03;17.20;;;13.88;;
14203;SDS011;7185;51.854;6.622;2023-06-22T00:36:38;18.88;;;14.10;;
14203;SDS011;7185;51.854;6.622;2023-06-22T00:39:11;20.33;;;13.95;;
14203;SDS011;7185;51.854;6.622;2023-06-22T00:41:42;18.75;;;14.05;;
14203;SDS011;7185;51.854;6.622;2023-06-22T00:44:15;17.38;;;13.95;;
14203;SDS011;7185;51.854;6.622;2023-06-22T00:46:46;17.73;;;13.57;;
14203;SDS011;7185;51.854;6.622;2023-06-22T00:49:18;19.20;;;13.70;;
14203;SDS011;7185;51.854;6.622;2023-06-22T00:51:49;18.30;;;14.13;;
14203;SDS011;7185;51.854;6.622;2023-06-22T00:54:21;17.98;;;13.80;;
14203;SDS011;7185;51.854;6.622;2023-06-22T00:56:54;19.75;;;14.15;;
14203;SDS011;7185;51.854;6.622;2023-06-22T00:59:37;19.02;;;13.90;;
14203;SDS011;7185;51.854;6.622;2023-06-22T01:02:09;16.90;;;13.73;;
14203;SDS011;7185;51.854;6.622;2023-06-22T01:04:40;19.55;;;14.35;;
14203;SDS011;7185;51.854;6.622;2023-06-22T01:07:13;19.55;;;14.18;;
14203;SDS011;7185;51.854;6.622;2023-06-22T01:12:20;23.40;;;14.45;;
14203;SDS011;7185;51.854;6.622;2023-06-22T01:14:55;21.40;;;15.40;;
14203;SDS011;7185;51.854;6.622;2023-06-22T01:20:00;20.70;;;15.07;;
14203;SDS011;7185;51.854;6.622;2023-06-22T01:22:38;20.02;;;14.50;;
14203;SDS011;7185;51.854;6.622;2023-06-22T01:25:19;21.00;;;15.15;;
14203;SDS011;7185;51.854;6.622;2023-06-22T01:27:53;20.23;;;14.90;;
14203;SDS011;7185;51.854;6.622;2023-06-22T01:30:28;19.27;;;14.52;;
14203;SDS011;7185;51.854;6.622;2023-06-22T01:33:01;20.15;;;14.32;;
14203;SDS011;7185;51.854;6.622;2023-06-22T01:35:34;18.50;;;14.73;;
14203;SDS011;7185;51.854;6.622;2023-06-22T01:38:05;19.00;;;15.23;;
14203;SDS011;7185;51.854;6.622;2023-06-22T01:40:37;19.90;;;15.35;;
14203;SDS011;7185;51.854;6.622;2023-06-22T01:43:09;22.10;;;15.60;;
14203;SDS011;7185;51.854;6.622;2023-06-22T01:45:42;19.48;;;14.95;;
14203;SDS011;7185;51.854;6.622;2023-06-22T01:48:14;18.67;;;14.68;;
14203;SDS011;7185;51.854;6.622;2023-06-22T01:50:45;18.67;;;14.48;;
14203;SDS011;7185;51.854;6.622;2023-06-22T01:53:20;23.45;;;15.52;;
14203;SDS011;7185;51.854;6.622;2023-06-22T01:55:52;22.73;;;15.90;;
14203;SDS011;7185;51.854;6.622;2023-06-22T01:58:24;18.25;;;15.18;;
14203;SDS011;7185;51.854;6.622;2023-06-22T02:00:58;19.45;;;14.50;;
14203;SDS011;7185;51.854;6.622;2023-06-22T02:03:30;21.40;;;15.60;;
14203;SDS011;7185;51.854;6.622;2023-06-22T02:06:03;19.77;;;15.13;;
14203;SDS011;7185;51.854;6.622;2023-06-22T02:08:36;22.08;;;15.27;;
14203;SDS011;7185;51.854;6.622;2023-06-22T02:11:09;22.65;;;16.27;;
14203;SDS011;7185;51.854;6.622;2023-06-22T02:13:41;21.60;;;16.17;;
14203;SDS011;7185;51.854;6.622;2023-06-22T02:16:14;23.40;;;16.88;;
14203;SDS011;7185;51.854;6.622;2023-06-22T02:18:48;18.92;;;15.27;;
14203;SDS011;7185;51.854;6.622;2023-06-22T02:21:21;21.58;;;16.98;;
14203;SDS011;7185;51.854;6.622;2023-06-22T02:23:52;18.95;;;15.45;;
14203;SDS011;7185;51.854;6.622;2023-06-22T02:26:24;20.52;;;15.75;;
14203;SDS011;7185;51.854;6.622;2023-06-22T02:28:56;19.88;;;16.02;;
14203;SDS011;7185;51.854;6.622;2023-06-22T02:31:28;22.20;;;17.13;;
14203;SDS011;7185;51.854;6.622;2023-06-22T02:34:00;22.90;;;17.13;;
14203;SDS011;7185;51.854;6.622;2023-06-22T02:36:32;22.33;;;17.83;;
14203;SDS011;7185;51.854;6.622;2023-06-22T02:39:03;24.42;;;17.35;;
14203;SDS011;7185;51.854;6.622;2023-06-22T02:41:34;21.60;;;16.75;;
14203;SDS011;7185;51.854;6.622;2023-06-22T02:44:06;21.08;;;16.02;;
14203;SDS011;7185;51.854;6.622;2023-06-22T02:46:39;25.35;;;17.60;;
14203;SDS011;7185;51.854;6.622;2023-06-22T02:49:10;25.23;;;18.88;;
14203;SDS011;7185;51.854;6.622;2023-06-22T02:51:45;21.90;;;16.77;;
14203;SDS011;7185;51.854;6.622;2023-06-22T02:54:17;20.35;;;17.70;;
14203;SDS011;7185;51.854;6.622;2023-06-22T02:56:49;20.55;;;16.40;;
14203;SDS011;7185;51.854;6.622;2023-06-22T02:59:20;21.92;;;17.35;;
14203;SDS011;7185;51.854;6.622;2023-06-22T03:01:55;22.90;;;16.85;;
14203;SDS011;7185;51.854;6.622;2023-06-22T03:04:26;24.60;;;18.92;;
14203;SDS011;7185;51.854;6.622;2023-06-22T03:06:58;23.73;;;18.42;;
14203;SDS011;7185;51.854;6.622;2023-06-22T03:09:31;24.63;;;19.10;;
14203;SDS011;7185;51.854;6.622;2023-06-22T03:12:03;24.75;;;18.38;;
14203;SDS011;7185;51.854;6.622;2023-06-22T03:14:34;22.45;;;17.70;;
14203;SDS011;7185;51.854;6.622;2023-06-22T03:17:07;24.17;;;18.90;;
14203;SDS011;7185;51.854;6.622;2023-06-22T03:19:39;21.63;;;17.95;;
14203;SDS011;7185;51.854;6.622;2023-06-22T03:22:10;21.85;;;17.58;;
14203;SDS011;7185;51.854;6.622;2023-06-22T03:24:41;25.85;;;19.50;;
14203;SDS011;7185;51.854;6.622;2023-06-22T03:27:13;24.27;;;17.73;;
14203;SDS011;7185;51.854;6.622;2023-06-22T03:29:44;26.63;;;19.50;;
14203;SDS011;7185;51.854;6.622;2023-06-22T03:32:17;26.42;;;18.95;;
14203;SDS011;7185;51.854;6.622;2023-06-22T03:34:49;24.27;;;19.02;;
14203;SDS011;7185;51.854;6.622;2023-06-22T03:37:20;30.17;;;20.63;;
14203;SDS011;7185;51.854;6.622;2023-06-22T03:39:52;25.02;;;18.15;;
14203;SDS011;7185;51.854;6.622;2023-06-22T03:42:23;24.98;;;18.88;;
14203;SDS011;7185;51.854;6.622;2023-06-22T03:44:55;23.30;;;18.45;;
14203;SDS011;7185;51.854;6.622;2023-06-22T03:47:28;23.02;;;17.50;;
14203;SDS011;7185;51.854;6.622;2023-06-22T03:49:59;24.02;;;19.70;;
14203;SDS011;7185;51.854;6.622;2023-06-22T03:52:31;24.45;;;19.05;;
14203;SDS011;7185;51.854;6.622;2023-06-22T03:55:03;25.05;;;19.08;;
14203;SDS011;7185;51.854;6.622;2023-06-22T03:57:34;23.98;;;19.33;;
14203;SDS011;7185;51.854;6.622;2023-06-22T04:00:06;22.48;;;18.58;;
14203;SDS011;7185;51.854;6.622;2023-06-22T04:02:41;26.20;;;19.00;;
14203;SDS011;7185;51.854;6.622;2023-06-22T04:05:13;21.08;;;18.00;;
14203;SDS011;7185;51.854;6.622;2023-06-22T04:07:44;26.38;;;18.33;;
14203;SDS011;7185;51.854;6.622;2023-06-22T04:10:16;24.83;;;18.58;;
14203;SDS011;7185;51.854;6.622;2023-06-22T04:12:47;26.15;;;19.35;;
14203;SDS011;7185;51.854;6.622;2023-06-22T04:15:19;24.92;;;19.92;;
14203;SDS011;7185;51.854;6.622;2023-06-22T04:17:51;22.60;;;17.95;;
14203;SDS011;7185;51.854;6.622;2023-06-22T04:20:23;25.55;;;20.15;;
14203;SDS011;7185;51.854;6.622;2023-06-22T04:22:56;23.73;;;18.42;;
14203;SDS011;7185;51.854;6.622;2023-06-22T04:25:27;28.45;;;19.80;;
14203;SDS011;7185;51.854;6.622;2023-06-22T04:27:58;25.30;;;19.52;;
14203;SDS011;7185;51.854;6.622;2023-06-22T04:30:34;24.85;;;18.33;;
14203;SDS011;7185;51.854;6.622;2023-06-22T04:33:07;26.58;;;19.42;;
14203;SDS011;7185;51.854;6.622;2023-06-22T04:35:39;27.85;;;19.15;;
14203;SDS011;7185;51.854;6.622;2023-06-22T04:38:11;24.20;;;19.25;;
14203;SDS011;7185;51.854;6.622;2023-06-22T04:40:43;23.70;;;19.45;;
14203;SDS011;7185;51.854;6.622;2023-06-22T04:43:14;28.95;;;21.17;;
14203;SDS011;7185;51.854;6.622;2023-06-22T04:45:46;28.17;;;20.58;;
14203;SDS011;7185;51.854;6.622;2023-06-22T04:48:23;25.77;;;19.77;;
14203;SDS011;7185;51.854;6.622;2023-06-22T04:50:55;27.30;;;20.15;;
14203;SDS011;7185;51.854;6.622;2023-06-22T04:53:30;25.95;;;19.55;;
14203;SDS011;7185;51.854;6.622;2023-06-22T04:56:01;24.30;;;20.35;;
14203;SDS011;7185;51.854;6.622;2023-06-22T04:58:34;27.35;;;21.35;;
14203;SDS011;7185;51.854;6.622;2023-06-22T05:01:06;25.17;;;20.20;;
14203;SDS011;7185;51.854;6.622;2023-06-22T05:03:40;26.55;;;20.95;;
14203;SDS011;7185;51.854;6.622;2023-06-22T05:06:12;26.95;;;21.33;;
14203;SDS011;7185;51.854;6.622;2023-06-22T05:08:44;30.00;;;20.50;;
14203;SDS011;7185;51.854;6.622;2023-06-22T05:11:15;29.75;;;21.30;;
14203;SDS011;7185;51.854;6.622;2023-06-22T05:13:47;27.13;;;19.95;;
14203;SDS011;7185;51.854;6.622;2023-06-22T05:16:18;26.30;;;19.80;;
14203;SDS011;7185;51.854;6.622;2023-06-22T05:18:55;24.92;;;19.17;;
14203;SDS011;7185;51.854;6.622;2023-06-22T05:21:27;28.85;;;20.70;;
14203;SDS011;7185;51.854;6.622;2023-06-22T05:23:58;22.88;;;18.73;;
14203;SDS011;7185;51.854;6.622;2023-06-22T05:26:33;23.33;;;18.60;;
14203;SDS011;7185;51.854;6.622;2023-06-22T05:29:05;26.58;;;20.95;;
14203;SDS011;7185;51.854;6.622;2023-06-22T05:31:36;23.30;;;19.50;;
14203;SDS011;7185;51.854;6.622;2023-06-22T05:34:11;24.50;;;19.20;;
14203;SDS011;7185;51.854;6.622;2023-06-22T05:36:43;26.55;;;20.10;;
14203;SDS011;7185;51.854;6.622;2023-06-22T05:39:14;25.42;;;20.25;;
14203;SDS011;7185;51.854;6.622;2023-06-22T05:41:46;24.40;;;20.27;;
14203;SDS011;7185;51.854;6.622;2023-06-22T05:44:17;25.83;;;18.38;;
14203;SDS011;7185;51.854;6.622;2023-06-22T05:46:49;26.15;;;19.35;;
14203;SDS011;7185;51.854;6.622;2023-06-22T05:49:22;26.25;;;18.98;;
14203;SDS011;7185;51.854;6.622;2023-06-22T05:51:55;23.80;;;18.50;;
14203;SDS011;7185;51.854;6.622;2023-06-22T05:54:27;26.70;;;19.63;;
14203;SDS011;7185;51.854;6.622;2023-06-22T05:56:58;23.80;;;18.77;;
14203;SDS011;7185;51.854;6.622;2023-06-22T05:59:30;25.95;;;19.35;;
14203;SDS011;7185;51.854;6.622;2023-06-22T06:02:01;25.17;;;18.52;;
14203;SDS011;7185;51.854;6.622;2023-06-22T06:04:34;25.50;;;19.05;;
14203;SDS011;7185;51.854;6.622;2023-06-22T06:07:06;22.33;;;18.17;;
14203;SDS011;7185;51.854;6.622;2023-06-22T06:09:38;26.60;;;19.50;;
14203;SDS011;7185;51.854;6.622;2023-06-22T06:12:09;25.73;;;19.08;;
14203;SDS011;7185;51.854;6.622;2023-06-22T06:14:41;24.02;;;18.95;;
14203;SDS011;7185;51.854;6.622;2023-06-22T06:17:12;24.25;;;19.15;;
14203;SDS011;7185;51.854;6.622;2023-06-22T06:19:45;23.35;;;18.25;;
14203;SDS011;7185;51.854;6.622;2023-06-22T06:22:17;25.40;;;19.20;;
14203;SDS011;7185;51.854;6.622;2023-06-22T06:24:49;23.05;;;18.08;;
14203;SDS011;7185;51.854;6.622;2023-06-22T06:27:20;24.10;;;18.23;;
14203;SDS011;7185;51.854;6.622;2023-06-22T06:29:59;21.67;;;18.30;;
14203;SDS011;7185;51.854;6.622;2023-06-22T06:32:30;22.67;;;16.70;;
14203;SDS011;7185;51.854;6.622;2023-06-22T06:35:04;25.33;;;18.55;;
14203;SDS011;7185;51.854;6.622;2023-06-22T06:37:36;22.65;;;17.55;;
14203;SDS011;7185;51.854;6.622;2023-06-22T06:40:08;22.42;;;17.40;;
14203;SDS011;7185;51.854;6.622;2023-06-22T06:42:41;21.13;;;16.35;;
14203;SDS011;7185;51.854;6.622;2023-06-22T06:45:15;23.20;;;18.23;;
14203;SDS011;7185;51.854;6.622;2023-06-22T06:47:51;20.73;;;15.98;;
14203;SDS011;7185;51.854;6.622;2023-06-22T06:50:28;22.15;;;17.63;;
14203;SDS011;7185;51.854;6.622;2023-06-22T06:53:20;22.08;;;17.23;;
14203;SDS011;7185;51.854;6.622;2023-06-22T06:55:54;20.48;;;15.95;;
14203;SDS011;7185;51.854;6.622;2023-06-22T06:58:31;21.70;;;17.42;;
14203;SDS011;7185;51.854;6.622;2023-06-22T07:01:03;22.10;;;16.65;;
14203;SDS011;7185;51.854;6.622;2023-06-22T07:03:35;19.65;;;16.23;;
14203;SDS011;7185;51.854;6.622;2023-06-22T07:06:08;22.27;;;16.27;;
14203;SDS011;7185;51.854;6.622;2023-06-22T07:08:41;24.70;;;17.77;;
14203;SDS011;7185;51.854;6.622;2023-06-22T07:11:13;22.73;;;16.70;;
14203;SDS011;7185;51.854;6.622;2023-06-22T07:13:45;21.85;;;16.63;;
14203;SDS011;7185;51.854;6.622;2023-06-22T07:16:19;24.40;;;17.13;;
14203;SDS011;7185;51.854;6.622;2023-06-22T07:18:53;19.65;;;15.90;;
14203;SDS011;7185;51.854;6.622;2023-06-22T07:21:26;24.98;;;18.75;;
14203;SDS011;7185;51.854;6.622;2023-06-22T07:23:58;24.27;;;17.08;;
14203;SDS011;7185;51.854;6.622;2023-06-22T07:26:29;22.30;;;17.02;;
14203;SDS011;7185;51.854;6.622;2023-06-22T07:29:01;21.58;;;17.10;;
14203;SDS011;7185;51.854;6.622;2023-06-22T07:31:33;24.13;;;17.70;;
14203;SDS011;7185;51.854;6.622;2023-06-22T07:34:05;20.50;;;15.45;;
14203;SDS011;7185;51.854;6.622;2023-06-22T07:36:52;21.70;;;16.23;;
14203;SDS011;7185;51.854;6.622;2023-06-22T07:39:24;22.75;;;16.42;;
14203;SDS011;7185;51.854;6.622;2023-06-22T07:41:57;22.35;;;17.52;;
14203;SDS011;7185;51.854;6.622;2023-06-22T07:44:28;19.67;;;15.40;;
14203;SDS011;7185;51.854;6.622;2023-06-22T07:47:00;23.83;;;16.95;;
14203;SDS011;7185;51.854;6.622;2023-06-22T07:49:31;20.67;;;15.48;;
14203;SDS011;7185;51.854;6.622;2023-06-22T07:52:06;23.88;;;17.30;;
14203;SDS011;7185;51.854;6.622;2023-06-22T07:54:38;21.42;;;16.65;;
14203;SDS011;7185;51.854;6.622;2023-06-22T07:57:10;21.05;;;15.45;;
14203;SDS011;7185;51.854;6.622;2023-06-22T07:59:41;20.02;;;15.63;;
14203;SDS011;7185;51.854;6.622;2023-06-22T08:02:13;23.75;;;15.80;;
14203;SDS011;7185;51.854;6.622;2023-06-22T08:04:45;22.52;;;16.98;;
14203;SDS011;7185;51.854;6.622;2023-06-22T08:07:27;24.17;;;16.77;;
14203;SDS011;7185;51.854;6.622;2023-06-22T08:09:59;23.23;;;17.15;;
14203;SDS011;7185;51.854;6.622;2023-06-22T08:12:32;19.88;;;15.07;;
14203;SDS011;7185;51.854;6.622;2023-06-22T08:15:04;21.98;;;16.13;;
14203;SDS011;7185;51.854;6.622;2023-06-22T08:17:38;20.13;;;16.42;;
14203;SDS011;7185;51.854;6.622;2023-06-22T08:20:23;20.98;;;15.43;;
14203;SDS011;7185;51.854;6.622;2023-06-22T08:22:57;17.58;;;13.98;;
14203;SDS011;7185;51.854;6.622;2023-06-22T08:25:35;18.15;;;13.45;;
14203;SDS011;7185;51.854;6.622;2023-06-22T08:28:07;23.00;;;17.77;;
14203;SDS011;7185;51.854;6.622;2023-06-22T08:30:38;19.95;;;15.05;;
14203;SDS011;7185;51.854;6.622;2023-06-22T08:33:10;19.15;;;15.43;;
14203;SDS011;7185;51.854;6.622;2023-06-22T08:35:42;19.63;;;14.50;;
14203;SDS011;7185;51.854;6.622;2023-06-22T08:38:16;20.27;;;15.27;;
14203;SDS011;7185;51.854;6.622;2023-06-22T08:40:48;21.08;;;16.13;;
14203;SDS011;7185;51.854;6.622;2023-06-22T08:43:21;18.58;;;13.73;;
14203;SDS011;7185;51.854;6.622;2023-06-22T08:45:53;21.17;;;14.75;;
14203;SDS011;7185;51.854;6.622;2023-06-22T08:48:25;25.85;;;14.80;;
14203;SDS011;7185;51.854;6.622;2023-06-22T08:50:57;21.67;;;14.52;;
14203;SDS011;7185;51.854;6.622;2023-06-22T08:53:30;19.05;;;14.27;;
14203;SDS011;7185;51.854;6.622;2023-06-22T08:56:02;21.65;;;15.80;;
14203;SDS011;7185;51.854;6.622;2023-06-22T08:58:34;23.13;;;15.55;;
14203;SDS011;7185;51.854;6.622;2023-06-22T09:01:07;20.95;;;14.82;;
14203;SDS011;7185;51.854;6.622;2023-06-22T09:03:38;20.58;;;14.93;;
14203;SDS011;7185;51.854;6.622;2023-06-22T09:06:10;18.25;;;14.00;;
14203;SDS011;7185;51.854;6.622;2023-06-22T09:08:46;22.40;;;15.82;;
14203;SDS011;7185;51.854;6.622;2023-06-22T09:11:18;20.08;;;15.52;;
14203;SDS011;7185;51.854;6.622;2023-06-22T09:13:50;22.58;;;15.10;;
14203;SDS011;7185;51.854;6.622;2023-06-22T09:16:22;19.00;;;12.73;;
14203;SDS011;7185;51.854;6.622;2023-06-22T09:18:54;19.77;;;14.93;;
14203;SDS011;7185;51.854;6.622;2023-06-22T09:21:26;20.40;;;15.63;;
14203;SDS011;7185;51.854;6.622;2023-06-22T09:24:00;20.85;;;14.43;;
14203;SDS011;7185;51.854;6.622;2023-06-22T09:26:33;19.38;;;13.98;;
14203;SDS011;7185;51.854;6.622;2023-06-22T09:29:04;21.83;;;15.02;;
14203;SDS011;7185;51.854;6.622;2023-06-22T09:31:37;19.75;;;14.80;;
14203;SDS011;7185;51.854;6.622;2023-06-22T09:34:08;19.50;;;15.13;;
14203;SDS011;7185;51.854;6.622;2023-06-22T09:36:40;20.65;;;14.93;;
14203;SDS011;7185;51.854;6.622;2023-06-22T09:39:14;17.63;;;14.75;;
14203;SDS011;7185;51.854;6.622;2023-06-22T09:41:45;25.20;;;16.80;;
14203;SDS011;7185;51.854;6.622;2023-06-22T09:44:17;21.40;;;15.15;;
14203;SDS011;7185;51.854;6.622;2023-06-22T09:46:48;22.00;;;16.05;;
14203;SDS011;7185;51.854;6.622;2023-06-22T09:49:20;19.92;;;15.85;;
14203;SDS011;7185;51.854;6.622;2023-06-22T09:51:52;19.95;;;15.57;;
14203;SDS011;7185;51.854;6.622;2023-06-22T09:54:25;21.17;;;15.70;;
14203;SDS011;7185;51.854;6.622;2023-06-22T09:56:58;21.70;;;16.42;;
14203;SDS011;7185;51.854;6.622;2023-06-22T09:59:29;23.27;;;15.90;;
14203;SDS011;7185;51.854;6.622;2023-06-22T10:02:02;21.65;;;16.30;;
14203;SDS011;7185;51.854;6.622;2023-06-22T10:04:34;19.25;;;15.35;;
14203;SDS011;7185;51.854;6.622;2023-06-22T10:07:06;23.67;;;16.77;;
14203;SDS011;7185;51.854;6.622;2023-06-22T10:09:39;18.08;;;14.32;;
14203;SDS011;7185;51.854;6.622;2023-06-22T10:12:11;18.83;;;14.63;;
14203;SDS011;7185;51.854;6.622;2023-06-22T10:14:42;20.20;;;15.75;;
14203;SDS011;7185;51.854;6.622;2023-06-22T10:17:14;20.00;;;15.45;;
14203;SDS011;7185;51.854;6.622;2023-06-22T10:19:47;21.60;;;16.42;;
14203;SDS011;7185;51.854;6.622;2023-06-22T10:22:19;18.63;;;14.45;;
14203;SDS011;7185;51.854;6.622;2023-06-22T10:24:52;21.27;;;16.73;;
14203;SDS011;7185;51.854;6.622;2023-06-22T10:27:24;22.45;;;16.85;;
14203;SDS011;7185;51.854;6.622;2023-06-22T10:29:55;23.40;;;16.45;;
14203;SDS011;7185;51.854;6.622;2023-06-22T10:32:27;20.33;;;15.90;;
14203;SDS011;7185;51.854;6.622;2023-06-22T10:35:00;22.30;;;16.13;;
14203;SDS011;7185;51.854;6.622;2023-06-22T10:37:32;20.33;;;16.50;;
14203;SDS011;7185;51.854;6.622;2023-06-22T10:40:06;22.35;;;17.40;;
14203;SDS011;7185;51.854;6.622;2023-06-22T10:42:38;22.85;;;16.90;;
14203;SDS011;7185;51.854;6.622;2023-06-22T10:45:10;19.05;;;15.70;;
14203;SDS011;7185;51.854;6.622;2023-06-22T10:47:42;24.80;;;17.48;;
14203;SDS011;7185;51.854;6.622;2023-06-22T10:50:15;19.70;;;16.05;;
14203;SDS011;7185;51.854;6.622;2023-06-22T10:52:46;20.13;;;15.23;;
14203;SDS011;7185;51.854;6.622;2023-06-22T10:55:19;22.30;;;18.02;;
14203;SDS011;7185;51.854;6.622;2023-06-22T10:57:51;21.17;;;15.13;;
14203;SDS011;7185;51.854;6.622;2023-06-22T11:00:23;20.80;;;16.17;;
14203;SDS011;7185;51.854;6.622;2023-06-22T11:02:55;22.98;;;17.25;;
14203;SDS011;7185;51.854;6.622;2023-06-22T11:05:28;22.20;;;16.48;;
14203;SDS011;7185;51.854;6.622;2023-06-22T11:08:00;22.33;;;15.85;;
14203;SDS011;7185;51.854;6.622;2023-06-22T11:10:33;20.98;;;15.88;;
14203;SDS011;7185;51.854;6.622;2023-06-22T11:13:04;22.35;;;16.65;;
14203;SDS011;7185;51.854;6.622;2023-06-22T11:15:39;23.15;;;16.85;;
14203;SDS011;7185;51.854;6.622;2023-06-22T11:18:11;25.73;;;16.15;;
14203;SDS011;7185;51.854;6.622;2023-06-22T11:20:43;23.65;;;16.75;;
14203;SDS011;7185;51.854;6.622;2023-06-22T11:23:15;18.35;;;14.98;;
14203;SDS011;7185;51.854;6.622;2023-06-22T11:25:49;19.17;;;14.55;;
14203;SDS011;7185;51.854;6.622;2023-06-22T11:28:20;19.27;;;15.30;;
14203;SDS011;7185;51.854;6.622;2023-06-22T11:30:52;22.83;;;16.25;;
14203;SDS011;7185;51.854;6.622;2023-06-22T11:33:24;21.60;;;16.75;;
14203;SDS011;7185;51.854;6.622;2023-06-22T11:35:56;21.05;;;16.25;;
14203;SDS011;7185;51.854;6.622;2023-06-22T11:38:27;20.88;;;16.70;;
14203;SDS011;7185;51.854;6.622;2023-06-22T11:41:02;22.60;;;16.50;;
14203;SDS011;7185;51.854;6.622;2023-06-22T11:43:33;22.95;;;16.20;;
14203;SDS011;7185;51.854;6.622;2023-06-22T11:46:06;25.25;;;17.08;;
14203;SDS011;7185;51.854;6.622;2023-06-22T11:48:37;23.10;;;17.27;;
14203;SDS011;7185;51.854;6.622;2023-06-22T11:51:09;19.55;;;15.15;;
14203;SDS011;7185;51.854;6.622;2023-06-22T11:53:41;23.48;;;17.42;;
14203;SDS011;7185;51.854;6.622;2023-06-22T11:56:14;24.42;;;16.80;;
14203;SDS011;7185;51.854;6.622;2023-06-22T11:58:46;20.20;;;15.15;;
14203;SDS011;7185;51.854;6.622;2023-06-22T12:01:17;21.38;;;15.73;;
14203;SDS011;7185;51.854;6.622;2023-06-22T12:03:49;20.80;;;16.88;;
14203;SDS011;7185;51.854;6.622;2023-06-22T12:06:21;20.13;;;14.80;;
14203;SDS011;7185;51.854;6.622;2023-06-22T12:08:52;20.98;;;15.48;;
14203;SDS011;7185;51.854;6.622;2023-06-22T12:11:27;18.35;;;15.13;;
14203;SDS011;7185;51.854;6.622;2023-06-22T12:14:02;21.40;;;16.48;;
14203;SDS011;7185;51.854;6.622;2023-06-22T12:16:43;22.73;;;17.70;;
14203;SDS011;7185;51.854;6.622;2023-06-22T12:19:15;23.50;;;16.52;;
14203;SDS011;7185;51.854;6.622;2023-06-22T12:21:55;22.77;;;16.25;;
14203;SDS011;7185;51.854;6.622;2023-06-22T12:24:26;20.70;;;14.45;;
14203;SDS011;7185;51.854;6.622;2023-06-22T12:27:02;29.10;;;19.50;;
14203;SDS011;7185;51.854;6.622;2023-06-22T12:29:34;27.42;;;17.92;;
14203;SDS011;7185;51.854;6.622;2023-06-22T12:32:06;32.22;;;20.40;;
14203;SDS011;7185;51.854;6.622;2023-06-22T12:34:38;26.48;;;17.92;;
14203;SDS011;7185;51.854;6.622;2023-06-22T12:37:10;30.00;;;19.95;;
14203;SDS011;7185;51.854;6.622;2023-06-22T12:39:42;27.70;;;20.35;;
14203;SDS011;7185;51.854;6.622;2023-06-22T12:42:15;28.95;;;19.98;;
14203;SDS011;7185;51.854;6.622;2023-06-22T12:44:47;27.80;;;20.02;;
14203;SDS011;7185;51.854;6.622;2023-06-22T12:47:18;27.10;;;21.92;;
14203;SDS011;7185;51.854;6.622;2023-06-22T12:49:50;27.67;;;21.65;;
14203;SDS011;7185;51.854;6.622;2023-06-22T12:52:21;26.30;;;21.58;;
14203;SDS011;7185;51.854;6.622;2023-06-22T12:54:53;29.95;;;22.25;;
14203;SDS011;7185;51.854;6.622;2023-06-22T12:57:27;29.88;;;23.45;;
14203;SDS011;7185;51.854;6.622;2023-06-22T12:59:58;28.10;;;21.13;;
14203;SDS011;7185;51.854;6.622;2023-06-22T13:02:31;28.92;;;22.38;;
14203;SDS011;7185;51.854;6.622;2023-06-22T13:05:02;24.60;;;18.70;;
14203;SDS011;7185;51.854;6.622;2023-06-22T13:07:35;27.58;;;22.52;;
14203;SDS011;7185;51.854;6.622;2023-06-22T13:10:07;27.42;;;21.38;;
14203;SDS011;7185;51.854;6.622;2023-06-22T13:12:40;25.98;;;21.50;;
14203;SDS011;7185;51.854;6.622;2023-06-22T13:15:11;29.67;;;23.10;;
14203;SDS011;7185;51.854;6.622;2023-06-22T13:17:43;28.27;;;22.33;;
14203;SDS011;7185;51.854;6.622;2023-06-22T13:20:15;27.83;;;22.35;;
14203;SDS011;7185;51.854;6.622;2023-06-22T13:22:46;27.55;;;22.48;;
14203;SDS011;7185;51.854;6.622;2023-06-22T13:25:18;28.45;;;22.90;;
14203;SDS011;7185;51.854;6.622;2023-06-22T13:27:54;27.65;;;22.00;;
14203;SDS011;7185;51.854;6.622;2023-06-22T13:30:25;28.92;;;22.77;;
14203;SDS011;7185;51.854;6.622;2023-06-22T13:32:57;29.27;;;22.95;;
14203;SDS011;7185;51.854;6.622;2023-06-22T13:35:29;29.73;;;23.83;;
14203;SDS011;7185;51.854;6.622;2023-06-22T13:38:01;28.88;;;22.88;;
14203;SDS011;7185;51.854;6.622;2023-06-22T13:40:47;28.50;;;22.65;;
14203;SDS011;7185;51.854;6.622;2023-06-22T13:43:20;25.65;;;21.55;;
14203;SDS011;7185;51.854;6.622;2023-06-22T13:45:54;26.83;;;21.88;;
14203;SDS011;7185;51.854;6.622;2023-06-22T13:48:26;25.25;;;21.33;;
14203;SDS011;7185;51.854;6.622;2023-06-22T13:50:58;27.10;;;20.67;;
14203;SDS011;7185;51.854;6.622;2023-06-22T13:53:30;25.88;;;20.20;;
14203;SDS011;7185;51.854;6.622;2023-06-22T13:56:02;25.13;;;18.95;;
14203;SDS011;7185;51.854;6.622;2023-06-22T13:58:35;25.50;;;19.77;;
14203;SDS011;7185;51.854;6.622;2023-06-22T14:01:07;24.70;;;19.38;;
14203;SDS011;7185;51.854;6.622;2023-06-22T14:03:39;26.10;;;20.90;;
14203;SDS011;7185;51.854;6.622;2023-06-22T14:06:10;26.30;;;20.77;;
14203;SDS011;7185;51.854;6.622;2023-06-22T14:08:42;26.58;;;21.48;;
14203;SDS011;7185;51.854;6.622;2023-06-22T14:11:14;26.73;;;21.13;;
14203;SDS011;7185;51.854;6.622;2023-06-22T14:13:47;26.35;;;21.20;;
14203;SDS011;7185;51.854;6.622;2023-06-22T14:16:28;26.15;;;19.52;;
14203;SDS011;7185;51.854;6.622;2023-06-22T14:19:00;25.00;;;21.23;;
14203;SDS011;7185;51.854;6.622;2023-06-22T14:21:32;23.20;;;20.10;;
14203;SDS011;7185;51.854;6.622;2023-06-22T14:24:04;24.27;;;20.92;;
14203;SDS011;7185;51.854;6.622;2023-06-22T14:26:36;27.10;;;20.77;;
14203;SDS011;7185;51.854;6.622;2023-06-22T14:29:09;27.65;;;21.65;;
14203;SDS011;7185;51.854;6.622;2023-06-22T14:31:44;26.17;;;20.33;;
14203;SDS011;7185;51.854;6.622;2023-06-22T14:34:16;27.95;;;21.77;;
14203;SDS011;7185;51.854;6.622;2023-06-22T14:36:47;25.73;;;20.25;;
14203;SDS011;7185;51.854;6.622;2023-06-22T14:39:19;28.40;;;21.73;;
14203;SDS011;7185;51.854;6.622;2023-06-22T14:41:52;31.08;;;22.00;;
14203;SDS011;7185;51.854;6.622;2023-06-22T14:44:25;27.90;;;22.33;;
14203;SDS011;7185;51.854;6.622;2023-06-22T14:46:59;27.20;;;21.88;;
14203;SDS011;7185;51.854;6.622;2023-06-22T14:49:31;24.45;;;20.08;;
14203;SDS011;7185;51.854;6.622;2023-06-22T14:52:03;27.83;;;21.42;;
14203;SDS011;7185;51.854;6.622;2023-06-22T14:54:36;26.42;;;20.88;;
14203;SDS011;7185;51.854;6.622;2023-06-22T14:57:10;28.77;;;21.42;;
14203;SDS011;7185;51.854;6.622;2023-06-22T14:59:44;28.05;;;22.95;;
14203;SDS011;7185;51.854;6.622;2023-06-22T15:02:16;27.13;;;21.45;;
14203;SDS011;7185;51.854;6.622;2023-06-22T15:04:48;28.98;;;23.25;;
14203;SDS011;7185;51.854;6.622;2023-06-22T15:07:23;27.73;;;22.98;;
14203;SDS011;7185;51.854;6.622;2023-06-22T15:09:55;28.15;;;21.70;;